Time;durP1;ratioP1;P1;durP2;ratioP2;P2;SDS_P1;SDS_P2;PMS_P1;PMS_P2;Temp;Humidity;BMP_temperature;BMP_pressure;BME280_temperature;BME280_humidity;BME280_pressure;Samples;Min_cycle;Max_cycle;Signal;HPM_P1;HPM_P2
2024/02/13 00:00:12;;;;;;;5.65;2.15;;;;;;;;;;1277145;23;20091;-78
2024/02/13 00:00:42;;;;;;;7.32;3.30;;;;;;;;;;1271396;22;20013;-78
2024/02/13 00:01:13;;;;;;;1.38;1.27;;;;;;;;;;1276979;23;20001;-79
2024/02/13 00:01:44;;;;;;;20.35;2.80;;;;;;;;;;1277251;23;20004;-78
2024/02/13 00:02:15;;;;;;;3.65;2.55;;;;;;;;;;1271126;23;20013;-79
2024/02/13 00:02:45;;;;;;;11.18;4.18;;;;;;;;;;1277378;23;20013;-78
2024/02/13 00:03:16;;;;;;;2.20;1.77;;;;;;;;;;1276968;23;20070;-79
2024/02/13 00:03:47;;;;;;;6.05;3.05;;;;;;;;;;1277482;23;20001;-79
2024/02/13 00:04:20;;;;;;;4.05;2.60;;;;;;;;;;1276951;22;20009;-79
2024/02/13 00:04:50;;;;;;;2.53;2.33;;;;;;;;;;1277253;23;20109;-79
2024/02/13 00:05:21;;;;;;;4.18;2.88;;;;;;;;;;1276890;23;20428;-79
2024/02/13 00:05:51;;;;;;;3.58;2.65;;;;;;;;;;1271606;23;20092;-79
2024/02/13 00:06:22;;;;;;;5.10;4.60;;;;;;;;;;1277184;23;20032;-78
2024/02/13 00:06:55;;;;;;;2.22;2.00;;;;;;;;;;1277440;23;20342;-79
2024/02/13 00:09:26;;;;;;;;;;;;;;;;;;1306378;22;19910;-79
2024/02/13 00:11:46;;;;;;;3.87;3.47;;;;;;;;;;1308970;22;20002;-80
2024/02/13 00:12:17;;;;;;;2.92;2.40;;;;;;;;;;1309016;22;20317;-80
2024/02/13 00:14:47;;;;;;;14.25;2.67;;;;;;;;;;1277464;23;19920;-81
2024/02/13 00:15:20;;;;;;;1.63;1.55;;;;;;;;;;1278007;23;20009;-81
2024/02/13 00:15:51;;;;;;;3.85;3.50;;;;;;;;;;1277616;23;19997;-81
2024/02/13 00:16:22;;;;;;;1.80;1.70;;;;;;;;;;1270909;23;20012;-81
2024/02/13 00:16:52;;;;;;;3.67;2.50;;;;;;;;;;1271246;23;20010;-81
2024/02/13 00:17:23;;;;;;;2.88;1.48;;;;;;;;;;1270811;23;20488;-81
2024/02/13 00:17:54;;;;;;;2.20;2.03;;;;;;;;;;1272128;23;20012;-81
2024/02/13 00:18:25;;;;;;;2.28;2.17;;;;;;;;;;1270893;23;20010;-81
2024/02/13 00:19:01;;;;;;;4.40;2.88;;;;;;;;;;1271734;23;20005;-81
2024/02/13 00:19:31;;;;;;;1.73;1.60;;;;;;;;;;1277322;23;20110;-81
2024/02/13 00:20:08;;;;;;;0.60;0.55;;;;;;;;;;1277870;23;20018;-81
2024/02/13 00:20:38;;;;;;;1.63;1.48;;;;;;;;;;1277643;23;20015;-81
2024/02/13 00:21:09;;;;;;;23.90;3.90;;;;;;;;;;1271056;23;20012;-81
2024/02/13 00:21:39;;;;;;;6.03;4.15;;;;;;;;;;1270942;23;20005;-81
2024/02/13 00:22:12;;;;;;;4.20;2.50;;;;;;;;;;1271234;23;20123;-81
2024/02/13 00:22:46;;;;;;;4.13;2.67;;;;;;;;;;1271141;23;20434;-81
2024/02/13 00:23:18;;;;;;;5.05;2.35;;;;;;;;;;1270001;23;20052;-80
2024/02/13 00:23:48;;;;;;;3.58;3.22;;;;;;;;;;1285520;22;20032;-80
2024/02/13 00:26:09;;;;;;;4.17;2.00;;;;;;;;;;1310288;22;20006;-80
2024/02/13 00:26:39;;;;;;;17.75;5.45;;;;;;;;;;1303244;22;20018;-80
2024/02/13 00:27:10;;;;;;;4.05;3.67;;;;;;;;;;1304023;22;20513;-80
2024/02/13 00:27:40;;;;;;;5.82;3.33;;;;;;;;;;1303192;22;19999;-81
2024/02/13 00:28:11;;;;;;;4.25;3.85;;;;;;;;;;1303709;22;20003;-81
2024/02/13 00:28:41;;;;;;;2.70;2.47;;;;;;;;;;1303392;22;20003;-81
2024/02/13 00:29:12;;;;;;;1.65;1.55;;;;;;;;;;1304250;22;20014;-81
2024/02/13 00:29:45;;;;;;;2.58;2.38;;;;;;;;;;1296941;22;20506;-81
2024/02/13 00:30:16;;;;;;;3.70;2.92;;;;;;;;;;1297686;22;20416;-81
2024/02/13 00:30:47;;;;;;;4.10;2.53;;;;;;;;;;1303417;22;19999;-80
2024/02/13 00:31:17;;;;;;;4.05;2.97;;;;;;;;;;1303831;22;20003;-80
2024/02/13 00:31:50;;;;;;;12.10;2.80;;;;;;;;;;1303556;22;20414;-80
2024/02/13 00:32:21;;;;;;;4.75;2.95;;;;;;;;;;1299376;22;20090;-79
2024/02/13 00:32:51;;;;;;;12.15;5.85;;;;;;;;;;1285954;22;20038;-81
2024/02/13 00:33:22;;;;;;;3.97;2.72;;;;;;;;;;1303286;22;20003;-80
2024/02/13 00:33:54;;;;;;;2.83;2.58;;;;;;;;;;1304410;22;20042;-80
2024/02/13 00:34:24;;;;;;;8.90;4.32;;;;;;;;;;1303159;22;20099;-80
2024/02/13 00:34:55;;;;;;;10.73;3.22;;;;;;;;;;1303818;22;20063;-80
2024/02/13 00:35:26;;;;;;;2.35;2.17;;;;;;;;;;1303283;22;20003;-80
2024/02/13 00:35:56;;;;;;;6.53;4.53;;;;;;;;;;1298071;22;20002;-80
2024/02/13 00:36:27;;;;;;;6.18;2.75;;;;;;;;;;1303353;22;20060;-80
2024/02/13 00:37:00;;;;;;;11.63;3.50;;;;;;;;;;1303706;22;20010;-80
2024/02/13 00:37:31;;;;;;;7.70;3.55;;;;;;;;;;1297386;22;20432;-80
2024/02/13 00:38:03;;;;;;;3.60;3.30;;;;;;;;;;1297533;22;19995;-80
2024/02/13 00:38:33;;;;;;;9.75;3.88;;;;;;;;;;1296914;22;20428;-80
2024/02/13 00:39:03;;;;;;;5.97;4.28;;;;;;;;;;1297431;22;20055;-80
2024/02/13 00:39:34;;;;;;;8.60;3.58;;;;;;;;;;1303365;22;20011;-79
2024/02/13 00:40:06;;;;;;;3.35;2.20;;;;;;;;;;1304099;22;20003;-79
2024/02/13 00:40:36;;;;;;;5.40;2.22;;;;;;;;;;1303418;22;20007;-79
2024/02/13 00:41:06;;;;;;;1.40;1.30;;;;;;;;;;1303554;22;20468;-79
2024/02/13 00:41:37;;;;;;;14.43;5.65;;;;;;;;;;1297315;22;20035;-80
2024/02/13 00:42:07;;;;;;;6.40;3.38;;;;;;;;;;1297537;22;20439;-80
2024/02/13 00:42:38;;;;;;;3.00;1.40;;;;;;;;;;1290654;23;20424;-80
2024/02/13 00:43:09;;;;;;;1.50;0.95;;;;;;;;;;1290928;22;20059;-79
2024/02/13 00:43:39;;;;;;;5.43;3.40;;;;;;;;;;1297058;22;20014;-79
2024/02/13 00:44:11;;;;;;;7.10;1.70;;;;;;;;;;1303782;22;20003;-79
2024/02/13 00:44:43;;;;;;;6.35;3.08;;;;;;;;;;1310598;22;20129;-79
2024/02/13 00:45:13;;;;;;;8.32;2.88;;;;;;;;;;1310076;22;20061;-79
2024/02/13 00:45:44;;;;;;;8.48;3.47;;;;;;;;;;1310230;22;20418;-79
2024/02/13 00:46:14;;;;;;;3.13;2.83;;;;;;;;;;1309290;22;20335;-80
2024/02/13 00:46:45;;;;;;;8.77;4.50;;;;;;;;;;1311088;22;20020;-80
2024/02/13 00:47:17;;;;;;;6.25;2.08;;;;;;;;;;1303139;22;20007;-80
2024/02/13 00:47:49;;;;;;;5.28;2.70;;;;;;;;;;1297738;22;20007;-80
2024/02/13 00:48:20;;;;;;;3.13;2.90;;;;;;;;;;1296704;22;20031;-80
2024/02/13 00:48:52;;;;;;;7.38;3.65;;;;;;;;;;1298062;22;20431;-80
2024/02/13 00:49:22;;;;;;;4.30;3.47;;;;;;;;;;1303047;22;20313;-80
2024/02/13 00:49:54;;;;;;;4.40;4.10;;;;;;;;;;1297535;22;20091;-80
2024/02/13 00:50:24;;;;;;;7.78;4.15;;;;;;;;;;1297423;22;20003;-80
2024/02/13 00:50:55;;;;;;;7.28;3.90;;;;;;;;;;1298367;22;20416;-80
2024/02/13 00:51:26;;;;;;;5.57;2.45;;;;;;;;;;1297026;22;20011;-80
2024/02/13 00:51:57;;;;;;;4.68;4.30;;;;;;;;;;1303776;22;19999;-81
2024/02/13 00:52:28;;;;;;;1.85;1.05;;;;;;;;;;1310207;22;20026;-81
2024/02/13 00:52:59;;;;;;;8.35;5.70;;;;;;;;;;1311006;22;20067;-81
2024/02/13 00:53:29;;;;;;;2.22;1.45;;;;;;;;;;1309529;22;20095;-81
2024/02/13 00:54:00;;;;;;;5.68;3.20;;;;;;;;;;1310273;22;20026;-81
2024/02/13 00:54:30;;;;;;;1.95;1.80;;;;;;;;;;1302990;22;20092;-81
2024/02/13 00:55:01;;;;;;;4.70;1.38;;;;;;;;;;1297042;22;20004;-81
2024/02/13 00:55:31;;;;;;;2.63;2.42;;;;;;;;;;1290819;23;20110;-81
2024/02/13 00:56:02;;;;;;;1.55;1.45;;;;;;;;;;1290811;22;20031;-81
2024/02/13 00:56:33;;;;;;;1.55;1.48;;;;;;;;;;1290617;22;20098;-81
2024/02/13 00:57:05;;;;;;;3.63;1.45;;;;;;;;;;1298057;22;20003;-81
2024/02/13 00:57:35;;;;;;;2.80;1.73;;;;;;;;;;1296612;22;20003;-81
2024/02/13 00:58:06;;;;;;;4.03;2.80;;;;;;;;;;1297740;22;20007;-81
2024/02/13 00:58:37;;;;;;;2.65;2.45;;;;;;;;;;1296794;22;20090;-81
2024/02/13 00:59:07;;;;;;;0.30;0.30;;;;;;;;;;1297073;22;20036;-81
2024/02/13 00:59:40;;;;;;;2.83;1.65;;;;;;;;;;1302965;22;20011;-81
2024/02/13 01:00:10;;;;;;;0.45;0.45;;;;;;;;;;1297805;22;20073;-81
2024/02/13 01:00:41;;;;;;;0.88;0.88;;;;;;;;;;1303159;22;20007;-81
2024/02/13 01:01:12;;;;;;;3.42;3.10;;;;;;;;;;1296600;22;20038;-81
2024/02/13 01:01:43;;;;;;;4.57;3.03;;;;;;;;;;1297352;22;20035;-81
2024/02/13 01:02:17;;;;;;;4.57;1.77;;;;;;;;;;1297145;22;20406;-81
2024/02/13 01:02:47;;;;;;;3.13;2.50;;;;;;;;;;1298398;22;20004;-81
2024/02/13 01:03:18;;;;;;;4.20;3.75;;;;;;;;;;1302992;22;20331;-81
2024/02/13 01:03:48;;;;;;;1.65;1.55;;;;;;;;;;1297793;22;20151;-81
2024/02/13 01:04:18;;;;;;;1.77;1.67;;;;;;;;;;1303871;22;20003;-81
2024/02/13 01:04:49;;;;;;;3.95;3.60;;;;;;;;;;1303500;22;20145;-81
2024/02/13 01:05:19;;;;;;;1.58;1.48;;;;;;;;;;1303021;22;20090;-81
2024/02/13 01:05:50;;;;;;;4.45;3.50;;;;;;;;;;1310334;22;19999;-81
2024/02/13 01:06:22;;;;;;;12.70;2.30;;;;;;;;;;1310151;22;20450;-81
2024/02/13 01:06:52;;;;;;;2.95;2.53;;;;;;;;;;1310850;22;20010;-81
2024/02/13 01:07:23;;;;;;;2.20;2.00;;;;;;;;;;1310570;22;20014;-81
2024/02/13 01:07:53;;;;;;;1.13;1.10;;;;;;;;;;1310332;22;20089;-81
2024/02/13 01:08:24;;;;;;;4.65;2.40;;;;;;;;;;1310104;22;20015;-81
2024/02/13 01:08:54;;;;;;;2.42;2.22;;;;;;;;;;1310004;22;20086;-81
2024/02/13 01:09:25;;;;;;;3.30;1.70;;;;;;;;;;1309529;22;20002;-81
2024/02/13 01:09:55;;;;;;;4.22;3.15;;;;;;;;;;1303555;22;20007;-81
2024/02/13 01:10:26;;;;;;;3.88;2.20;;;;;;;;;;1296897;22;20003;-81
2024/02/13 01:10:56;;;;;;;7.20;3.85;;;;;;;;;;1297498;22;20083;-81
2024/02/13 01:11:27;;;;;;;3.03;2.38;;;;;;;;;;1296739;22;19999;-81
2024/02/13 01:11:58;;;;;;;3.72;2.58;;;;;;;;;;1297225;22;20007;-81
2024/02/13 01:12:28;;;;;;;2.95;2.55;;;;;;;;;;1296875;22;20010;-81
2024/02/13 01:12:59;;;;;;;3.40;2.28;;;;;;;;;;1297217;22;20007;-81
2024/02/13 01:13:31;;;;;;;2.08;1.63;;;;;;;;;;1297225;22;20007;-81
2024/02/13 01:14:02;;;;;;;2.42;1.75;;;;;;;;;;1296983;22;20004;-81
2024/02/13 01:14:33;;;;;;;1.80;1.42;;;;;;;;;;1297478;22;20086;-81
2024/02/13 01:15:04;;;;;;;12.18;1.67;;;;;;;;;;1297511;22;20079;-81
2024/02/13 01:15:34;;;;;;;3.60;3.22;;;;;;;;;;1297089;22;20011;-81
2024/02/13 01:16:05;;;;;;;7.38;4.40;;;;;;;;;;1304639;22;20369;-81
2024/02/13 01:16:35;;;;;;;1.10;1.08;;;;;;;;;;1303279;22;20097;-81
2024/02/13 01:17:05;;;;;;;5.10;3.03;;;;;;;;;;1303304;22;20007;-81
2024/02/13 01:18:10;;;;;;;1.52;1.05;;;;;;;;;;1296150;22;20050;-80
2024/02/13 01:20:36;;;;;;;3.30;0.93;;;;;;;;;;1277140;22;20336;-80
2024/02/13 01:21:11;;;;;;;2.75;1.92;;;;;;;;;;1277274;23;20370;-79
2024/02/13 01:21:43;;;;;;;2.05;1.95;;;;;;;;;;1276843;23;20013;-80
2024/02/13 01:22:53;;;;;;;;;;;;;;;;;;1271091;23;20344;-78
2024/02/13 01:23:24;;;;;;;1.48;1.38;;;;;;;;;;1270154;23;19904;-78
2024/02/13 01:23:54;;;;;;;1.63;1.52;;;;;;;;;;1273120;23;20012;-78
2024/02/13 01:24:26;;;;;;;4.35;2.30;;;;;;;;;;1276915;23;20005;-77
2024/02/13 01:24:57;;;;;;;0.75;0.75;;;;;;;;;;1270765;23;20355;-79
2024/02/13 01:25:28;;;;;;;2.03;1.73;;;;;;;;;;1269352;23;20005;-78
2024/02/13 01:25:59;;;;;;;1.45;1.35;;;;;;;;;;1270000;23;20005;-77
2024/02/13 01:26:30;;;;;;;1.20;1.13;;;;;;;;;;1258329;23;19998;-77
2024/02/13 01:27:03;;;;;;;2.50;2.05;;;;;;;;;;1258258;23;20010;-77
2024/02/13 01:27:33;;;;;;;10.05;3.08;;;;;;;;;;1258117;23;20036;-78
2024/02/13 01:28:04;;;;;;;4.20;2.35;;;;;;;;;;1259034;23;20399;-77
2024/02/13 01:28:35;;;;;;;3.97;2.80;;;;;;;;;;1270028;23;20032;-78
2024/02/13 01:29:05;;;;;;;2.60;2.40;;;;;;;;;;1268919;23;20005;-77
2024/02/13 01:29:36;;;;;;;3.78;3.03;;;;;;;;;;1269375;23;20031;-77
2024/02/13 01:30:09;;;;;;;5.78;2.35;;;;;;;;;;1276491;22;20049;-77
2024/02/13 01:30:41;;;;;;;5.78;2.40;;;;;;;;;;1276096;22;20012;-78
2024/02/13 01:31:12;;;;;;;1.67;1.58;;;;;;;;;;1276155;22;20055;-79
2024/02/13 01:31:43;;;;;;;2.33;2.08;;;;;;;;;;1270420;22;20044;-79
2024/02/13 01:32:16;;;;;;;5.55;2.22;;;;;;;;;;1270253;23;20477;-78
2024/02/13 01:32:48;;;;;;;1.65;1.48;;;;;;;;;;1264522;23;20005;-79
2024/02/13 01:33:18;;;;;;;7.18;2.10;;;;;;;;;;1264915;23;20010;-77
2024/02/13 01:33:49;;;;;;;1.17;1.17;;;;;;;;;;1295563;22;20062;-78
2024/02/13 01:34:19;;;;;;;2.80;1.55;;;;;;;;;;1288021;23;20008;-77
2024/02/13 01:34:50;;;;;;;1.60;1.08;;;;;;;;;;1264353;23;20014;-77
2024/02/13 01:35:21;;;;;;;7.03;2.17;;;;;;;;;;1263965;23;20006;-78
2024/02/13 01:35:53;;;;;;;0.95;0.95;;;;;;;;;;1264434;23;20021;-78
2024/02/13 01:36:24;;;;;;;1.65;1.50;;;;;;;;;;1270816;23;20135;-78
2024/02/13 01:36:57;;;;;;;1.23;1.13;;;;;;;;;;1270345;23;20074;-79
2024/02/13 01:37:29;;;;;;;2.08;1.55;;;;;;;;;;1265340;23;20620;-79
2024/02/13 01:39:19;;;;;;;1.73;1.63;;;;;;;;;;1273229;22;20529;-81
2024/02/13 01:39:49;;;;;;;0.70;0.70;;;;;;;;;;1276419;23;20417;-81
2024/02/13 01:41:00;;;;;;;;;;;;;;;;;;1265087;22;20033;-80
2024/02/13 01:42:11;;;;;;;;;;;;;;;;;;1274955;22;20571;-79
2024/02/13 01:45:16;;;;;;;5.05;3.83;;;;;;;;;;1302891;22;19919;-80
2024/02/13 01:45:48;;;;;;;4.00;2.20;;;;;;;;;;1303426;22;20035;-80
2024/02/13 01:46:21;;;;;;;1.27;1.27;;;;;;;;;;1302917;22;20003;-81
2024/02/13 01:47:30;;;;;;;3.58;2.22;;;;;;;;;;1270217;23;19920;-81
2024/02/13 01:48:04;;;;;;;1.10;1.10;;;;;;;;;;1270641;23;20154;-81
2024/02/13 01:48:37;;;;;;;2.13;1.80;;;;;;;;;;1270655;23;20016;-81
2024/02/13 01:49:09;;;;;;;3.05;2.20;;;;;;;;;;1270241;23;20085;-81
2024/02/13 01:49:39;;;;;;;0.45;0.45;;;;;;;;;;1270883;23;20032;-79
2024/02/13 01:50:13;;;;;;;4.95;2.47;;;;;;;;;;1270800;23;20138;-79
2024/02/13 01:50:44;;;;;;;1.05;1.02;;;;;;;;;;1270344;22;20005;-80
2024/02/13 01:51:15;;;;;;;6.90;3.85;;;;;;;;;;1270669;23;19997;-80
2024/02/13 01:51:47;;;;;;;0.55;0.55;;;;;;;;;;1270418;22;20015;-80
2024/02/13 01:52:18;;;;;;;7.13;1.75;;;;;;;;;;1270792;22;19998;-80
2024/02/13 01:52:50;;;;;;;1.75;1.60;;;;;;;;;;1270667;23;20302;-80
2024/02/13 01:53:21;;;;;;;3.13;2.83;;;;;;;;;;1269822;23;20437;-80
2024/02/13 01:53:51;;;;;;;1.35;1.35;;;;;;;;;;1270560;23;20089;-79
2024/02/13 01:54:25;;;;;;;1.75;1.65;;;;;;;;;;1270465;23;20036;-80
2024/02/13 01:54:56;;;;;;;0.30;0.30;;;;;;;;;;1271250;23;20009;-80
2024/02/13 01:55:28;;;;;;;1.48;1.35;;;;;;;;;;1271601;23;20441;-78
2024/02/13 01:56:01;;;;;;;3.13;2.30;;;;;;;;;;1270918;23;20005;-79
2024/02/13 01:56:33;;;;;;;3.08;2.40;;;;;;;;;;1270132;23;20005;-79
2024/02/13 01:57:04;;;;;;;2.95;2.75;;;;;;;;;;1270516;23;20346;-79
2024/02/13 01:57:36;;;;;;;1.88;1.75;;;;;;;;;;1263980;23;19997;-79
2024/02/13 01:58:07;;;;;;;1.83;1.73;;;;;;;;;;1265595;23;20009;-79
2024/02/13 01:58:38;;;;;;;1.38;1.27;;;;;;;;;;1270262;23;20005;-80
2024/02/13 01:59:08;;;;;;;1.30;0.93;;;;;;;;;;1269990;23;20001;-79
2024/02/13 01:59:39;;;;;;;1.95;1.55;;;;;;;;;;1264100;23;20013;-79
2024/02/13 02:00:13;;;;;;;1.60;1.05;;;;;;;;;;1265579;23;20505;-79
2024/02/13 02:00:44;;;;;;;0.70;0.70;;;;;;;;;;1265626;23;20006;-80
2024/02/13 02:01:14;;;;;;;1.40;1.30;;;;;;;;;;1267795;23;20001;-79
2024/02/13 02:01:47;;;;;;;3.13;2.60;;;;;;;;;;1264719;23;19998;-80
2024/02/13 02:02:18;;;;;;;2.90;2.45;;;;;;;;;;1258623;23;20007;-80
2024/02/13 02:02:49;;;;;;;0.85;0.82;;;;;;;;;;1264668;23;20339;-80
2024/02/13 02:03:20;;;;;;;3.42;2.45;;;;;;;;;;1264918;23;20029;-80
2024/02/13 02:03:50;;;;;;;0.70;0.70;;;;;;;;;;1270997;23;20008;-80
2024/02/13 02:04:22;;;;;;;1.63;1.52;;;;;;;;;;1270772;23;20068;-80
2024/02/13 02:04:53;;;;;;;1.13;1.05;;;;;;;;;;1270881;23;20005;-80
2024/02/13 02:05:23;;;;;;;2.90;2.70;;;;;;;;;;1268637;23;20438;-80
2024/02/13 02:05:53;;;;;;;1.10;1.10;;;;;;;;;;1270055;22;20006;-81
2024/02/13 02:06:24;;;;;;;8.75;2.38;;;;;;;;;;1271130;23;20323;-81
2024/02/13 02:06:54;;;;;;;0.60;0.60;;;;;;;;;;1270391;23;20016;-80
2024/02/13 02:07:27;;;;;;;3.63;1.55;;;;;;;;;;1279902;22;20010;-80
2024/02/13 02:07:57;;;;;;;1.42;1.15;;;;;;;;;;1302525;22;20007;-80
2024/02/13 02:08:27;;;;;;;1.42;1.33;;;;;;;;;;1302941;22;19999;-80
2024/02/13 02:08:58;;;;;;;5.50;2.30;;;;;;;;;;1309465;22;20003;-80
2024/02/13 02:09:29;;;;;;;4.85;2.08;;;;;;;;;;1302100;22;20090;-80
2024/02/13 02:10:00;;;;;;;6.85;3.85;;;;;;;;;;1295514;22;20014;-80
2024/02/13 02:10:30;;;;;;;3.42;3.13;;;;;;;;;;1295544;22;20388;-80
2024/02/13 02:11:04;;;;;;;2.78;1.77;;;;;;;;;;1294772;22;20020;-80
2024/02/13 02:11:34;;;;;;;6.13;2.63;;;;;;;;;;1300410;22;20049;-81
2024/02/13 02:12:05;;;;;;;1.80;1.73;;;;;;;;;;1295726;22;20007;-80
2024/02/13 02:12:36;;;;;;;2.33;2.13;;;;;;;;;;1292874;22;20768;-80
2024/02/13 02:13:06;;;;;;;3.30;3.00;;;;;;;;;;1294853;22;20108;-80
2024/02/13 02:13:37;;;;;;;2.15;1.92;;;;;;;;;;1296357;22;20007;-81
2024/02/13 02:14:08;;;;;;;1.27;1.23;;;;;;;;;;1296453;22;20007;-81
2024/02/13 02:14:39;;;;;;;2.13;2.03;;;;;;;;;;1301784;22;20036;-81
2024/02/13 02:15:48;;;;;;;2.47;1.50;;;;;;;;;;1276292;23;19920;-82
2024/02/13 02:16:20;;;;;;;1.88;1.77;;;;;;;;;;1276423;22;20092;-82
2024/02/13 02:16:50;;;;;;;0.82;0.82;;;;;;;;;;1270362;23;20005;-81
2024/02/13 02:17:22;;;;;;;1.45;0.55;;;;;;;;;;1269334;23;20434;-80
2024/02/13 02:17:53;;;;;;;1.92;1.45;;;;;;;;;;1270826;23;20823;-81
2024/02/13 02:18:24;;;;;;;6.05;3.03;;;;;;;;;;1270338;23;20009;-81
2024/02/13 02:18:54;;;;;;;2.28;2.05;;;;;;;;;;1270682;22;20349;-81
2024/02/13 02:19:25;;;;;;;2.30;2.15;;;;;;;;;;1270767;23;20029;-81
2024/02/13 02:19:56;;;;;;;3.35;3.10;;;;;;;;;;1269892;23;20032;-81
2024/02/13 02:20:26;;;;;;;1.35;1.25;;;;;;;;;;1270496;23;20111;-79
2024/02/13 02:20:57;;;;;;;2.25;1.40;;;;;;;;;;1270963;23;20024;-79
2024/02/13 02:21:27;;;;;;;0.55;0.55;;;;;;;;;;1269049;23;20104;-80
2024/02/13 02:21:58;;;;;;;0.63;0.63;;;;;;;;;;1270296;23;20016;-80
2024/02/13 02:22:31;;;;;;;1.10;1.10;;;;;;;;;;1270291;23;20006;-80
2024/02/13 02:23:02;;;;;;;0.70;0.70;;;;;;;;;;1270274;23;20064;-81
2024/02/13 02:23:34;;;;;;;1.60;1.50;;;;;;;;;;1271270;23;20006;-81
2024/02/13 02:24:06;;;;;;;3.08;2.25;;;;;;;;;;1265078;23;20465;-80
2024/02/13 02:24:36;;;;;;;1.38;1.27;;;;;;;;;;1268834;23;20002;-81
2024/02/13 02:25:08;;;;;;;0.90;0.75;;;;;;;;;;1270134;23;20010;-81
2024/02/13 02:25:38;;;;;;;0.93;0.93;;;;;;;;;;1270155;23;20305;-80
2024/02/13 02:26:10;;;;;;;1.58;1.48;;;;;;;;;;1270059;23;20011;-80
2024/02/13 02:26:42;;;;;;;0.65;0.65;;;;;;;;;;1270599;22;20005;-80
2024/02/13 02:27:12;;;;;;;2.05;1.75;;;;;;;;;;1270052;23;20009;-80
2024/02/13 02:27:43;;;;;;;2.90;1.48;;;;;;;;;;1268515;23;20422;-80
2024/02/13 02:28:17;;;;;;;1.67;1.58;;;;;;;;;;1269914;23;20009;-80
2024/02/13 02:30:00;;;;;;;;;;;;;;;;;;1290661;22;20034;-80
2024/02/13 02:30:31;;;;;;;2.90;1.55;;;;;;;;;;1298254;22;19907;-81
2024/02/13 02:31:01;;;;;;;1.05;1.05;;;;;;;;;;1302222;22;20003;-81
2024/02/13 02:31:32;;;;;;;10.77;2.45;;;;;;;;;;1295809;22;20004;-81
2024/02/13 02:32:04;;;;;;;12.20;2.53;;;;;;;;;;1297275;22;20011;-81
2024/02/13 02:32:35;;;;;;;2.15;1.13;;;;;;;;;;1283309;22;20015;-81
2024/02/13 02:35:06;;;;;;;;;;;;;;;;;;1280428;22;20194;-79
2024/02/13 02:36:50;;;;;;;;;;;;;;;;;;1309135;22;20365;-79
2024/02/13 02:40:01;;;;;;;2.35;1.85;;;;;;;;;;1308743;22;19914;-77
2024/02/13 02:40:31;;;;;;;1.27;1.27;;;;;;;;;;1307989;22;20021;-77
2024/02/13 02:41:42;;;;;;;1.90;1.80;;;;;;;;;;1308926;22;20965;-78
2024/02/13 02:42:55;;;;;;;;;;;;;;;;;;1310010;22;20034;-78
2024/02/13 02:43:25;;;;;;;0.60;0.60;;;;;;;;;;1306955;22;19990;-79
2024/02/13 02:43:56;;;;;;;10.43;3.25;;;;;;;;;;1308392;22;20040;-79
2024/02/13 02:45:46;;;;;;;;;;;;;;;;;;1301767;22;20026;-81
2024/02/13 02:46:17;;;;;;;5.93;1.50;;;;;;;;;;1306655;22;20021;-81
2024/02/13 02:46:48;;;;;;;1.08;1.08;;;;;;;;;;1308720;22;20594;-81
2024/02/13 02:47:22;;;;;;;2.63;2.42;;;;;;;;;;1308177;22;20017;-81
2024/02/13 02:47:55;;;;;;;1.20;1.20;;;;;;;;;;1302262;22;20011;-81
2024/02/13 02:48:25;;;;;;;0.43;0.43;;;;;;;;;;1295196;22;20007;-81
2024/02/13 02:48:56;;;;;;;1.52;0.95;;;;;;;;;;1295206;22;20546;-80
2024/02/13 02:49:27;;;;;;;7.45;2.63;;;;;;;;;;1296003;22;20812;-81
2024/02/13 02:51:58;;;;;;;;;;;;;;;;;;1308634;22;20272;-79
2024/02/13 02:53:42;;;;;;;4.65;2.28;;;;;;;;;;1282703;22;20024;-80
2024/02/13 02:54:50;;;;;;;1.40;1.33;;;;;;;;;;1274351;23;20020;-81
2024/02/13 02:55:22;;;;;;;1.25;1.23;;;;;;;;;;1274897;23;20060;-79
2024/02/13 02:55:54;;;;;;;2.45;2.28;;;;;;;;;;1268816;23;20009;-80
2024/02/13 02:56:24;;;;;;;2.45;2.13;;;;;;;;;;1269175;23;20029;-79
2024/02/13 02:56:57;;;;;;;8.45;2.90;;;;;;;;;;1269752;23;20012;-80
2024/02/13 02:57:28;;;;;;;2.97;2.70;;;;;;;;;;1269180;23;20001;-80
2024/02/13 02:57:58;;;;;;;2.63;2.45;;;;;;;;;;1269165;23;20114;-80
2024/02/13 02:58:29;;;;;;;3.15;2.90;;;;;;;;;;1268334;23;20009;-79
2024/02/13 02:58:59;;;;;;;6.13;1.20;;;;;;;;;;1263822;23;20005;-79
2024/02/13 02:59:30;;;;;;;9.20;4.53;;;;;;;;;;1261942;23;20347;-78
2024/02/13 03:00:06;;;;;;;4.75;1.48;;;;;;;;;;1264222;23;20032;-80
2024/02/13 03:00:37;;;;;;;3.60;1.48;;;;;;;;;;1271216;23;20024;-79
2024/02/13 03:01:08;;;;;;;4.25;2.40;;;;;;;;;;1270042;22;20038;-80
2024/02/13 03:01:39;;;;;;;1.35;1.27;;;;;;;;;;1262836;23;20006;-80
2024/02/13 03:02:10;;;;;;;1.77;1.67;;;;;;;;;;1256756;23;20011;-80
2024/02/13 03:02:40;;;;;;;2.10;1.63;;;;;;;;;;1258344;23;20742;-80
2024/02/13 03:03:11;;;;;;;4.78;3.53;;;;;;;;;;1262454;23;20014;-79
2024/02/13 03:03:41;;;;;;;3.13;2.88;;;;;;;;;;1270141;23;20039;-79
2024/02/13 03:04:12;;;;;;;2.85;2.17;;;;;;;;;;1275523;22;20424;-78
2024/02/13 03:04:42;;;;;;;1.45;1.10;;;;;;;;;;1269124;22;20016;-81
2024/02/13 03:05:13;;;;;;;4.15;2.15;;;;;;;;;;1261758;23;20139;-81
2024/02/13 03:05:44;;;;;;;1.95;1.63;;;;;;;;;;1256218;23;20010;-80
2024/02/13 03:06:16;;;;;;;0.98;0.98;;;;;;;;;;1251137;23;20018;-79
2024/02/13 03:06:47;;;;;;;8.27;3.63;;;;;;;;;;1257018;23;20010;-79
2024/02/13 03:07:17;;;;;;;9.82;3.85;;;;;;;;;;1255410;23;20319;-80
2024/02/13 03:07:48;;;;;;;4.88;4.28;;;;;;;;;;1262697;23;20092;-80
2024/02/13 03:08:20;;;;;;;4.57;2.97;;;;;;;;;;1267919;23;20084;-80
2024/02/13 03:08:51;;;;;;;8.13;3.78;;;;;;;;;;1263754;23;20029;-81
2024/02/13 03:09:22;;;;;;;4.05;3.03;;;;;;;;;;1262538;23;20014;-79
2024/02/13 03:09:53;;;;;;;1.05;1.05;;;;;;;;;;1262171;23;20120;-79
2024/02/13 03:10:23;;;;;;;2.17;2.05;;;;;;;;;;1262431;23;20002;-81
2024/02/13 03:13:21;;;;;;;;;;;;;;;;;;1275392;23;20017;-80
2024/02/13 03:13:51;;;;;;;6.53;3.42;;;;;;;;;;1275301;23;19920;-80
2024/02/13 03:14:22;;;;;;;2.55;1.55;;;;;;;;;;1275364;23;20009;-80
2024/02/13 03:16:06;;;;;;;;;;;;;;;;;;1302858;22;19919;-78
2024/02/13 03:16:37;;;;;;;2.67;2.03;;;;;;;;;;1283114;22;20224;-77
2024/02/13 03:17:53;;;;;;;2.25;2.05;;;;;;;;;;1301625;22;19995;-81
2024/02/13 03:18:24;;;;;;;1.52;1.42;;;;;;;;;;1301205;22;20007;-79
2024/02/13 03:23:18;;;;;;;8.13;5.05;;;;;;;;;;1305439;22;20180;-79
2024/02/13 03:24:29;;;;;;;4.53;2.78;;;;;;;;;;1275388;22;20013;-78
2024/02/13 03:25:32;;;;;;;1.50;1.35;;;;;;;;;;1275628;23;20017;-80
2024/02/13 03:26:06;;;;;;;0.50;0.50;;;;;;;;;;1275966;22;20052;-81
2024/02/13 03:26:36;;;;;;;0.68;0.68;;;;;;;;;;1299926;22;20021;-75
2024/02/13 03:28:13;;;;;;;1.45;1.35;;;;;;;;;;1303317;22;20010;-79
2024/02/13 03:28:54;;;;;;;;;;;;;;;;;;;;;
2024/02/13 03:29:56;;;;;;;;;;;;;;;;;;1299731;22;20367;-77
2024/02/13 03:30:27;;;;;;;3.90;2.75;;;;;;;;;;1308636;22;19975;-79
2024/02/13 03:32:07;;;;;;;;;;;;;;;;;;1285545;22;20370;-79
2024/02/13 03:33:52;;;;;;;;;;;;;;;;;;1287290;22;20344;-81
2024/02/13 03:34:23;;;;;;;1.00;0.95;;;;;;;;;;1288698;22;19921;-77
2024/02/13 03:34:54;;;;;;;1.20;1.10;;;;;;;;;;1302016;22;20078;-80
2024/02/13 03:36:08;;;;;;;;;;;;;;;;;;1279526;22;20016;-78
2024/02/13 03:36:39;;;;;;;1.02;0.88;;;;;;;;;;1301042;22;19917;-78
2024/02/13 03:37:10;;;;;;;0.60;0.60;;;;;;;;;;1287906;22;20007;-79
2024/02/13 03:39:43;;;;;;;;;;;;;;;;;;1305804;22;20019;-78
2024/02/13 03:42:57;;;;;;;;;;;;;;;;;;1276007;22;20472;-82
2024/02/13 03:44:00;;;;;;;4.30;3.03;;;;;;;;;;1274018;22;20160;-79
2024/02/13 03:44:33;;;;;;;3.63;2.53;;;;;;;;;;1277443;23;20111;-80
2024/02/13 03:45:06;;;;;;;11.25;1.75;;;;;;;;;;1299507;22;20011;-80
2024/02/13 03:47:05;;;;;;;2.35;1.80;;;;;;;;;;1299634;22;20011;-80
2024/02/13 03:48:16;;;;;;;;;;;;;;;;;;1301492;22;20026;-80
2024/02/13 03:48:47;;;;;;;0.40;0.40;;;;;;;;;;1301646;22;20472;-81
2024/02/13 03:49:17;;;;;;;0.43;0.43;;;;;;;;;;1303036;22;20052;-81
2024/02/13 03:49:48;;;;;;;0.55;0.55;;;;;;;;;;1308371;22;20057;-81
2024/02/13 03:50:19;;;;;;;4.53;1.23;;;;;;;;;;1306686;22;20099;-80
2024/02/13 03:50:49;;;;;;;0.85;0.85;;;;;;;;;;1308156;22;20010;-80
2024/02/13 03:51:19;;;;;;;5.03;3.72;;;;;;;;;;1301839;22;20003;-80
2024/02/13 03:51:50;;;;;;;4.20;1.95;;;;;;;;;;1301918;22;20004;-81
2024/02/13 03:52:20;;;;;;;1.67;1.58;;;;;;;;;;1302503;22;20415;-80
2024/02/13 03:52:51;;;;;;;5.03;1.27;;;;;;;;;;1302008;22;20005;-80
2024/02/13 03:53:22;;;;;;;2.33;2.17;;;;;;;;;;1294858;22;20007;-80
2024/02/13 03:53:52;;;;;;;1.45;1.35;;;;;;;;;;1296257;22;20003;-80
2024/02/13 03:54:23;;;;;;;0.55;0.52;;;;;;;;;;1302278;22;20007;-81
2024/02/13 03:54:53;;;;;;;2.67;1.83;;;;;;;;;;1302116;22;20041;-80
2024/02/13 03:55:24;;;;;;;5.00;3.35;;;;;;;;;;1302333;22;20041;-81
2024/02/13 03:55:54;;;;;;;2.45;2.08;;;;;;;;;;1295457;22;20014;-82
2024/02/13 03:56:55;;;;;;;1.65;1.55;;;;;;;;;;1302558;22;20015;-81
2024/02/13 03:57:30;;;;;;;1.63;1.52;;;;;;;;;;1301563;22;20063;-81
2024/02/13 03:58:01;;;;;;;12.88;3.10;;;;;;;;;;1301309;22;20108;-81
2024/02/13 03:58:31;;;;;;;6.18;2.17;;;;;;;;;;1295663;22;20082;-80
2024/02/13 03:59:02;;;;;;;3.60;1.33;;;;;;;;;;1289831;23;20382;-81
2024/02/13 03:59:35;;;;;;;3.33;1.17;;;;;;;;;;1289759;22;20059;-81
2024/02/13 04:01:16;;;;;;;;;;;;;;;;;;1300109;22;20373;-76
2024/02/13 04:01:46;;;;;;;1.85;1.75;;;;;;;;;;1302193;22;19913;-77
2024/02/13 04:02:17;;;;;;;3.55;2.85;;;;;;;;;;1307457;22;19998;-82